createdAt,value
2022-08-24T00:01:10.841Z,100493.22
2022-08-24T00:06:09.906Z,100484.34
2022-08-24T00:11:07.241Z,100497.66
2022-08-24T00:16:04.430Z,100487.91
2022-08-24T00:21:02.029Z,100490.41
2022-08-24T00:25:58.369Z,100486.41
2022-08-24T00:30:54.795Z,100486.28
2022-08-24T00:35:51.288Z,100483.78
2022-08-24T00:40:49.325Z,100485.47
2022-08-24T00:46:05.600Z,100482.47
2022-08-24T00:51:10.507Z,100486.53
2022-08-24T00:56:16.840Z,100484.84
2022-08-24T01:01:14.677Z,100477.81
2022-08-24T01:06:12.528Z,100476.97
2022-08-24T01:11:12.611Z,100472.06
2022-08-24T01:16:09.363Z,100475.97
2022-08-24T01:21:18.001Z,100477.13
2022-08-24T01:26:20.166Z,100483.53
2022-08-24T01:31:20.302Z,100484.19
2022-08-24T01:36:38.781Z,100477.97
2022-08-24T01:41:35.200Z,100472.41
2022-08-24T01:46:31.771Z,100481.34
2022-08-24T01:51:33.045Z,100483.19
2022-08-24T01:56:31.149Z,100481.84
2022-08-24T02:01:32.234Z,100478.09
2022-08-24T02:06:28.693Z,100482.47
2022-08-24T02:11:25.895Z,100489.38
2022-08-24T02:16:22.772Z,100488.06
2022-08-24T02:21:19.410Z,100487.72
2022-08-24T02:26:15.864Z,100487.91
2022-08-24T02:31:13.851Z,100495.66
2022-08-24T02:36:25.722Z,100494.63
2022-08-24T02:41:25.554Z,100494.13
2022-08-24T02:46:25.398Z,100491.78
2022-08-24T02:51:24.935Z,100492.63
2022-08-24T02:56:22.615Z,100494.97
2022-08-24T03:01:24.091Z,100492.63
2022-08-24T03:06:27.032Z,100500.19
2022-08-24T03:11:27.944Z,100500.69
2022-08-24T03:16:26.579Z,100500.34
2022-08-24T03:21:23.655Z,100504.03
2022-08-24T03:26:20.323Z,100508.72
2022-08-24T03:31:17.937Z,100503.03
2022-08-24T03:36:14.748Z,100492.38
2022-08-24T03:41:11.622Z,100486.44
2022-08-24T03:46:08.886Z,100495.50
2022-08-24T03:51:05.691Z,100495.50
2022-08-24T03:56:07.029Z,100499.94
2022-08-24T04:01:05.609Z,100495.69
2022-08-24T04:06:02.138Z,100503.69
2022-08-24T04:11:00.006Z,100505.72
2022-08-24T04:15:56.451Z,100501.69
2022-08-24T04:20:52.868Z,100510.28
2022-08-24T04:25:49.444Z,100509.44
2022-08-24T04:30:50.368Z,100518.22
2022-08-24T04:35:48.688Z,100508.09
2022-08-24T04:40:47.007Z,100514.84
2022-08-24T04:45:46.829Z,100516.03
2022-08-24T04:50:44.040Z,100527.16
2022-08-24T04:55:59.217Z,100525.28
2022-08-24T05:00:56.359Z,100524.47
2022-08-24T05:05:53.029Z,100525.13
2022-08-24T05:10:51.113Z,100531.84
2022-08-24T05:15:49.209Z,100528.31
2022-08-24T05:20:47.145Z,100531.34
2022-08-24T05:25:43.563Z,100536.53
2022-08-24T05:30:42.742Z,100539.09
2022-08-24T05:35:43.645Z,100548.06
2022-08-24T05:40:41.228Z,100549.69
2022-08-24T05:45:41.539Z,100556.91
2022-08-24T05:50:37.943Z,100558.44
2022-08-24T05:55:38.147Z,100564.22
2022-08-24T06:00:34.520Z,100565.25
2022-08-24T06:05:30.967Z,100568.25
2022-08-24T06:10:36.744Z,100563.38
2022-08-24T06:15:33.472Z,100579.44
2022-08-24T06:20:30.285Z,100581.03
2022-08-24T06:25:45.374Z,100580.53
2022-08-24T06:30:42.885Z,100583.44
2022-08-24T06:35:42.508Z,100579.84
2022-08-24T06:40:42.895Z,100579.28
2022-08-24T06:45:43.829Z,100597.28
2022-08-24T06:50:41.435Z,100606.13
2022-08-24T06:55:38.083Z,100603.34
2022-08-24T07:00:34.489Z,100605.19
2022-08-24T07:05:30.956Z,100605.38
2022-08-24T07:10:28.332Z,100617.84
2022-08-24T07:15:26.440Z,100622.91
2022-08-24T07:20:24.355Z,100624.66
2022-08-24T07:25:20.727Z,100623.66
2022-08-24T07:30:26.866Z,100632.88
2022-08-24T07:35:25.372Z,100639.81
2022-08-24T07:40:23.558Z,100630.53
2022-08-24T07:45:22.434Z,100641.38
2022-08-24T07:50:19.595Z,100639.28
2022-08-24T07:55:16.044Z,100641.84
2022-08-24T08:00:16.369Z,100641.16
2022-08-24T08:05:19.773Z,100653.59
2022-08-24T08:10:16.368Z,100657.63
2022-08-24T08:15:12.948Z,100658.00
2022-08-24T08:20:09.987Z,100659.41
2022-08-24T08:25:09.513Z,100656.09
2022-08-24T08:30:06.617Z,100658.97
2022-08-24T08:35:03.457Z,100653.91
2022-08-24T08:40:00.035Z,100646.94
2022-08-24T08:45:03.384Z,100646.06
2022-08-24T08:50:07.272Z,100657.75
2022-08-24T08:55:35.749Z,100656.59
2022-08-24T09:00:52.550Z,100658.84
2022-08-24T09:05:49.196Z,100647.47
2022-08-24T09:11:07.776Z,100655.34
2022-08-24T09:16:40.702Z,100657.78
2022-08-24T09:21:58.156Z,100653.38
2022-08-24T09:27:11.423Z,100648.38
2022-08-24T09:32:12.123Z,100648.34
2022-08-24T09:37:09.500Z,100639.81
2022-08-24T09:42:23.972Z,100645.75
2022-08-24T09:47:52.083Z,100640.75
2022-08-24T09:53:25.413Z,100644.00
2022-08-24T09:58:37.813Z,100640.00
2022-08-24T10:03:51.677Z,100638.34
2022-08-24T10:09:06.684Z,100625.41
2022-08-24T10:14:09.248Z,100617.63
2022-08-24T10:19:16.893Z,100620.91
2022-08-24T10:24:40.952Z,100606.88
2022-08-24T10:30:03.246Z,100605.75
2022-08-24T10:35:04.250Z,100602.50
2022-08-24T10:40:49.500Z,100602.78
2022-08-24T10:46:10.078Z,100589.91
2022-08-24T10:51:24.694Z,100597.06
2022-08-24T10:56:31.914Z,100583.25
2022-08-24T11:01:28.609Z,100593.19
2022-08-24T11:06:29.058Z,100599.00
2022-08-24T11:11:29.694Z,100591.16
2022-08-24T11:16:32.117Z,100591.75
2022-08-24T11:21:39.361Z,100584.06
2022-08-24T11:26:53.587Z,100579.69
2022-08-24T11:31:52.783Z,100578.66
2022-08-24T11:36:49.442Z,100575.28
2022-08-24T11:42:02.377Z,100575.16
2022-08-24T11:47:23.055Z,100575.91
2022-08-24T11:52:55.766Z,100573.03
2022-08-24T11:58:10.234Z,100571.06
2022-08-24T12:03:33.821Z,100570.84
2022-08-24T12:08:54.281Z,100562.28
2022-08-24T12:14:19.483Z,100571.34
2022-08-24T12:19:21.586Z,100567.28
2022-08-24T12:24:45.859Z,100564.13
2022-08-24T12:30:05.362Z,100559.00
2022-08-24T12:35:10.609Z,100558.63
2022-08-24T12:40:31.887Z,100557.72
2022-08-24T12:45:30.611Z,100557.47
2022-08-24T12:50:46.612Z,100551.41
2022-08-24T12:56:14.990Z,100546.34
2022-08-24T13:01:14.807Z,100553.47
2022-08-24T13:06:37.358Z,100546.81
2022-08-24T13:11:35.358Z,100546.72
2022-08-24T13:16:49.039Z,100541.53
2022-08-24T13:22:09.346Z,100548.78
2022-08-24T13:27:37.656Z,100548.84
2022-08-24T13:32:43.913Z,100535.78
2022-08-24T13:37:40.477Z,100538.97
2022-08-24T13:43:02.956Z,100540.03
2022-08-24T13:48:28.196Z,100537.25
2022-08-24T13:53:52.531Z,100527.66
2022-08-24T13:59:02.652Z,100519.53
2022-08-24T14:04:24.640Z,100521.97
2022-08-24T14:09:58.912Z,100520.28
2022-08-24T14:15:01.465Z,100520.34
2022-08-24T14:20:11.215Z,100517.59
2022-08-24T14:25:24.762Z,100512.56
2022-08-24T14:30:23.380Z,100506.81
2022-08-24T14:35:32.196Z,100502.63
2022-08-24T14:40:38.081Z,100502.88
2022-08-24T14:45:59.424Z,100503.97
2022-08-24T14:51:10.403Z,100490.69
2022-08-24T14:56:37.739Z,100497.16
2022-08-24T15:01:44.694Z,100496.75
2022-08-24T15:06:50.986Z,100499.13
2022-08-24T15:11:51.350Z,100493.59
2022-08-24T15:16:53.628Z,100490.91
2022-08-24T15:21:56.949Z,100488.78
2022-08-24T15:27:08.429Z,100480.47
2022-08-24T15:32:07.220Z,100488.91
2022-08-24T15:37:04.234Z,100479.81
2022-08-24T15:42:07.576Z,100481.97
2022-08-24T15:47:31.127Z,100480.63
2022-08-24T15:52:39.540Z,100480.13
2022-08-24T15:57:44.196Z,100475.13
2022-08-24T16:02:41.604Z,100472.94
2022-08-24T16:08:02.974Z,100479.59
2022-08-24T16:13:17.936Z,100481.00
2022-08-24T16:18:16.074Z,100475.28
2022-08-24T16:23:26.814Z,100470.84
2022-08-24T16:28:23.201Z,100466.69
2022-08-24T16:33:45.543Z,100468.34
2022-08-24T16:38:50.233Z,100469.16
2022-08-24T16:43:47.828Z,100472.09
2022-08-24T16:48:44.495Z,100473.25
2022-08-24T16:53:40.947Z,100472.03
2022-08-24T16:58:37.838Z,100465.88
2022-08-24T17:03:34.450Z,100472.50
2022-08-24T17:08:31.192Z,100464.50
2022-08-24T17:13:48.433Z,100464.25
2022-08-24T17:18:44.071Z,100471.00
2022-08-24T17:23:41.686Z,100462.50
2022-08-24T17:28:42.219Z,100474.09
2022-08-24T17:33:39.064Z,100484.88
2022-08-24T17:38:44.273Z,100491.00
2022-08-24T17:43:40.986Z,100494.44
2022-08-24T17:48:37.405Z,100510.31
2022-08-24T17:53:34.044Z,100510.31
2022-08-24T17:58:30.467Z,100510.84
2022-08-24T18:03:26.954Z,100520.44
2022-08-24T18:08:23.504Z,100517.50
2022-08-24T18:13:20.038Z,100524.63
2022-08-24T18:18:16.453Z,100533.31
2022-08-24T18:23:13.083Z,100536.50
2022-08-24T18:28:15.672Z,100549.22
2022-08-24T18:33:12.302Z,100551.13
2022-08-24T18:38:08.694Z,100560.00
2022-08-24T18:43:05.446Z,100564.97
2022-08-24T18:48:02.492Z,100572.69
2022-08-24T18:52:59.116Z,100574.81
2022-08-24T18:57:55.598Z,100574.31
2022-08-24T19:02:52.051Z,100581.25
2022-08-24T19:07:52.576Z,100575.91
2022-08-24T19:12:56.407Z,100578.78
2022-08-24T19:17:53.679Z,100580.72
2022-08-24T19:22:50.953Z,100581.81
2022-08-24T19:27:51.772Z,100575.81
2022-08-24T19:32:50.207Z,100586.31
2022-08-24T19:37:48.031Z,100588.03
2022-08-24T19:42:44.580Z,100592.88
2022-08-24T19:47:41.105Z,100592.84
2022-08-24T19:52:38.480Z,100590.56
2022-08-24T19:57:53.015Z,100588.44
2022-08-24T20:02:54.548Z,100585.53
2022-08-24T20:07:51.671Z,100598.75
2022-08-24T20:12:48.300Z,100598.09
2022-08-24T20:17:45.428Z,100597.47
2022-08-24T20:22:41.842Z,100592.66
2022-08-24T20:27:39.253Z,100602.06
2022-08-24T20:32:35.980Z,100594.94
2022-08-24T20:37:33.444Z,100597.28
2022-08-24T20:42:31.678Z,100597.47
2022-08-24T20:47:28.205Z,100605.66
2022-08-24T20:52:25.945Z,100597.47
2022-08-24T20:57:23.164Z,100599.81
2022-08-24T21:02:19.574Z,100598.28
2022-08-24T21:07:16.624Z,100603.38
2022-08-24T21:12:12.970Z,100605.84
2022-08-24T21:17:10.141Z,100613.78
2022-08-24T21:22:06.530Z,100618.81
2022-08-24T21:27:03.116Z,100616.53
2022-08-24T21:32:18.993Z,100629.31
2022-08-24T21:37:18.652Z,100628.66
2022-08-24T21:42:17.443Z,100630.47
2022-08-24T21:47:17.471Z,100639.22
2022-08-24T21:52:13.983Z,100636.69
2022-08-24T21:57:10.646Z,100642.50
2022-08-24T22:02:07.559Z,100640.81
2022-08-24T22:07:06.092Z,100648.69
2022-08-24T22:12:02.643Z,100648.91
2022-08-24T22:16:59.704Z,100648.72
2022-08-24T22:21:56.137Z,100652.38
2022-08-24T22:26:52.563Z,100642.00
2022-08-24T22:31:49.019Z,100639.59
2022-08-24T22:36:45.443Z,100630.41
2022-08-24T22:41:42.259Z,100618.91
2022-08-24T22:46:39.345Z,100624.41
2022-08-24T22:51:36.207Z,100614.97
2022-08-24T22:56:37.667Z,100616.19
2022-08-24T23:01:38.790Z,100611.34
2022-08-24T23:06:35.509Z,100609.56
2022-08-24T23:11:33.058Z,100615.38
2022-08-24T23:16:33.621Z,100619.09
2022-08-24T23:21:30.142Z,100620.84
2022-08-24T23:26:26.884Z,100620.03
2022-08-24T23:31:23.606Z,100620.41
2022-08-24T23:36:22.932Z,100618.47
2022-08-24T23:41:23.180Z,100610.53
2022-08-24T23:46:20.645Z,100616.19
2022-08-24T23:51:19.871Z,100604.59
2022-08-24T23:56:31.494Z,100608.69
